Kezdőlap
METAR-TAF:

METAR-TAF

Repülőterek :

Wattay nemzetközi repülőtér

Vientián, Laosz

földrajzi szélesség: 17-57N, földrajzi hosszúság: 102-34E, magasság: 171 m

Jelenlegi meteorológiai megfigyelések

A jelentés 20 perccel ezelõtt készült, 23:00 UTC
Szélcsend
Hőmérséklet 25°C
Páratartalom 79%
Légköri nyomás 1005 hPa
Látótávolság 10 km, vagy több
Szórványos felhőzet 2000 lábon
Szakadozott felhőzet 5000 lábon

METAR: VLVT 212300Z 00000KT 9999 SCT020 BKN050 25/21 Q1005 NOSIG

Idő: 06:20 (23:20 UTC)

Előrejelzés

A jelentés 6 órával és 20 perccel ezelõtt készült, 17:00 UTC
Az előrejelzés 21-én 18 óra UTC és 22-én 18 óra UTC között érvényes
Észak-északnyugati szél 6 kt
Látótávolság: 8000 m
Szórványos felhőzet 2000 lábon
Szakadozott felhőzet 5000 lábon

TAF: VLVT 211700Z 2118/2218 34006KT 8000 SCT020 BKN050

Meteorológiai megfigyelések és előrejelzések több, mint 4000 repülőtéren (METAR és TAF jelentéseket).

A térképen piros és sárga pontok jelzik az elérhető meteorológiai állomásokat.

Mozgassa az egeret a pont fölött, hogy megjelenjen az állomás neve.

Azután kattintson az időjárási megfigyelések és előrejelzések megtekintéséhez.

A térkép megváltoztatása: kattintson a fekete keresztel jelölt zöld gombra ráközelítéshez, a vonallal jelölt zöld gombra távolításhoz, vagy a zöld nyilakra a szomszédos térképek eléréséhez.


METAR-TAF: